sensor_id;sensor_type;location;lat;lon;timestamp;pressure;altitude;pressure_sealevel;temperature;humidity
76321;BME280;65132;52.088;5.402;2022-12-29T00:01:38;100053.97;;;11.39;86.46
76321;BME280;65132;52.088;5.402;2022-12-29T00:04:05;100058.88;;;11.35;86.97
76321;BME280;65132;52.088;5.402;2022-12-29T00:06:40;100035.66;;;11.41;86.21
76321;BME280;65132;52.088;5.402;2022-12-29T00:09:06;100039.22;;;11.41;86.24
76321;BME280;65132;52.088;5.402;2022-12-29T00:11:33;100031.09;;;11.41;86.41
76321;BME280;65132;52.088;5.402;2022-12-29T00:13:59;100035.16;;;11.53;85.53
76321;BME280;65132;52.088;5.402;2022-12-29T00:16:26;100041.78;;;11.51;85.43
76321;BME280;65132;52.088;5.402;2022-12-29T00:18:53;100026.50;;;11.50;85.51
76321;BME280;65132;52.088;5.402;2022-12-29T00:21:22;100029.56;;;11.47;85.91
76321;BME280;65132;52.088;5.402;2022-12-29T00:23:48;100007.22;;;11.45;86.16
76321;BME280;65132;52.088;5.402;2022-12-29T00:26:16;100012.94;;;11.58;84.84
76321;BME280;65132;52.088;5.402;2022-12-29T00:28:43;100014.47;;;11.60;84.88
76321;BME280;65132;52.088;5.402;2022-12-29T00:31:11;100017.38;;;11.59;85.30
76321;BME280;65132;52.088;5.402;2022-12-29T00:33:38;100001.28;;;11.57;85.06
76321;BME280;65132;52.088;5.402;2022-12-29T00:36:08;100008.56;;;11.57;85.23
76321;BME280;65132;52.088;5.402;2022-12-29T00:38:40;100002.47;;;11.55;85.19
76321;BME280;65132;52.088;5.402;2022-12-29T00:41:09;100005.31;;;11.61;84.86
76321;BME280;65132;52.088;5.402;2022-12-29T00:43:36;100009.09;;;11.52;85.33
76321;BME280;65132;52.088;5.402;2022-12-29T00:46:02;99995.03;;;11.49;85.38
76321;BME280;65132;52.088;5.402;2022-12-29T00:48:28;99997.72;;;11.57;84.65
76321;BME280;65132;52.088;5.402;2022-12-29T00:50:56;99985.72;;;11.59;84.89
76321;BME280;65132;52.088;5.402;2022-12-29T00:53:22;99982.16;;;11.51;85.41
76321;BME280;65132;52.088;5.402;2022-12-29T00:55:48;99969.25;;;11.53;85.14
76321;BME280;65132;52.088;5.402;2022-12-29T00:58:15;99973.34;;;11.57;84.89
76321;BME280;65132;52.088;5.402;2022-12-29T01:00:43;99974.88;;;11.35;86.46
76321;BME280;65132;52.088;5.402;2022-12-29T01:03:09;99973.50;;;11.39;86.69
76321;BME280;65132;52.088;5.402;2022-12-29T01:05:36;99959.66;;;11.42;85.76
76321;BME280;65132;52.088;5.402;2022-12-29T01:08:03;99947.81;;;11.35;86.31
76321;BME280;65132;52.088;5.402;2022-12-29T01:10:29;99961.34;;;11.35;86.25
76321;BME280;65132;52.088;5.402;2022-12-29T01:12:55;99942.22;;;11.37;85.87
76321;BME280;65132;52.088;5.402;2022-12-29T01:15:22;99939.69;;;11.35;86.70
76321;BME280;65132;52.088;5.402;2022-12-29T01:17:48;99947.47;;;11.14;88.55
76321;BME280;65132;52.088;5.402;2022-12-29T01:20:15;99968.63;;;11.03;89.52
76321;BME280;65132;52.088;5.402;2022-12-29T01:22:41;99940.88;;;10.93;90.95
76321;BME280;65132;52.088;5.402;2022-12-29T01:25:08;99950.00;;;10.83;91.29
76321;BME280;65132;52.088;5.402;2022-12-29T01:27:34;99939.34;;;10.90;91.53
76321;BME280;65132;52.088;5.402;2022-12-29T01:30:01;99938.50;;;10.73;92.71
76321;BME280;65132;52.088;5.402;2022-12-29T01:32:27;99933.75;;;10.75;92.48
76321;BME280;65132;52.088;5.402;2022-12-29T01:34:54;99939.00;;;10.69;93.18
76321;BME280;65132;52.088;5.402;2022-12-29T01:37:21;99926.63;;;10.66;93.59
76321;BME280;65132;52.088;5.402;2022-12-29T01:39:47;99934.59;;;10.68;93.09
76321;BME280;65132;52.088;5.402;2022-12-29T01:42:19;99944.06;;;10.64;93.78
76321;BME280;65132;52.088;5.402;2022-12-29T01:44:56;99922.22;;;10.57;94.70
76321;BME280;65132;52.088;5.402;2022-12-29T01:47:39;99933.91;;;10.58;94.50
76321;BME280;65132;52.088;5.402;2022-12-29T01:50:25;99934.59;;;10.68;93.66
76321;BME280;65132;52.088;5.402;2022-12-29T01:53:13;99958.94;;;10.76;92.94
76321;BME280;65132;52.088;5.402;2022-12-29T01:55:44;99951.34;;;10.71;93.57
76321;BME280;65132;52.088;5.402;2022-12-29T01:58:13;99955.06;;;10.70;93.33
76321;BME280;65132;52.088;5.402;2022-12-29T02:00:42;99951.69;;;10.76;92.60
76321;BME280;65132;52.088;5.402;2022-12-29T02:03:09;99963.53;;;10.75;92.95
76321;BME280;65132;52.088;5.402;2022-12-29T02:08:09;99954.91;;;10.72;93.14
76321;BME280;65132;52.088;5.402;2022-12-29T02:10:37;99963.16;;;10.62;94.08
76321;BME280;65132;52.088;5.402;2022-12-29T02:13:05;99955.88;;;10.63;93.75
76321;BME280;65132;52.088;5.402;2022-12-29T02:21:45;99957.94;;;10.69;93.31
76321;BME280;65132;52.088;5.402;2022-12-29T02:24:23;99946.25;;;10.76;92.37
76321;BME280;65132;52.088;5.402;2022-12-29T02:35:12;99953.72;;;10.91;89.08
76321;BME280;65132;52.088;5.402;2022-12-29T02:40:48;99962.03;;;10.89;89.00
76321;BME280;65132;52.088;5.402;2022-12-29T02:46:03;99957.28;;;11.07;86.94
76321;BME280;65132;52.088;5.402;2022-12-29T02:48:38;99947.13;;;11.09;86.59
76321;BME280;65132;52.088;5.402;2022-12-29T02:51:19;99948.47;;;11.05;86.93
76321;BME280;65132;52.088;5.402;2022-12-29T02:53:47;99949.50;;;11.12;86.33
76321;BME280;65132;52.088;5.402;2022-12-29T02:56:14;99935.28;;;11.18;86.38
76321;BME280;65132;52.088;5.402;2022-12-29T02:58:40;99926.50;;;11.08;87.39
76321;BME280;65132;52.088;5.402;2022-12-29T03:07:04;99948.81;;;10.78;89.05
76321;BME280;65132;52.088;5.402;2022-12-29T03:10:11;99951.84;;;10.83;89.11
76321;BME280;65132;52.088;5.402;2022-12-29T03:12:42;99972.16;;;10.87;88.57
76321;BME280;65132;52.088;5.402;2022-12-29T03:15:29;99936.97;;;10.87;88.28
76321;BME280;65132;52.088;5.402;2022-12-29T03:18:04;99945.44;;;10.84;88.43
76321;BME280;65132;52.088;5.402;2022-12-29T03:20:49;99943.22;;;10.79;88.30
76321;BME280;65132;52.088;5.402;2022-12-29T03:23:19;99937.16;;;10.77;89.22
76321;BME280;65132;52.088;5.402;2022-12-29T03:25:51;99937.81;;;10.79;88.30
76321;BME280;65132;52.088;5.402;2022-12-29T03:28:23;99939.00;;;10.85;87.83
76321;BME280;65132;52.088;5.402;2022-12-29T03:30:51;99935.63;;;10.83;88.48
76321;BME280;65132;52.088;5.402;2022-12-29T03:33:21;99933.41;;;10.78;88.20
76321;BME280;65132;52.088;5.402;2022-12-29T03:35:51;99924.78;;;10.59;88.91
76321;BME280;65132;52.088;5.402;2022-12-29T03:41:00;99922.91;;;10.51;89.02
76321;BME280;65132;52.088;5.402;2022-12-29T03:43:28;99941.16;;;10.41;89.01
76321;BME280;65132;52.088;5.402;2022-12-29T03:45:55;99924.09;;;10.57;88.07
76321;BME280;65132;52.088;5.402;2022-12-29T03:48:22;99925.78;;;10.50;88.61
76321;BME280;65132;52.088;5.402;2022-12-29T03:50:48;99919.50;;;10.41;88.96
76321;BME280;65132;52.088;5.402;2022-12-29T03:53:14;99913.41;;;10.31;89.16
76321;BME280;65132;52.088;5.402;2022-12-29T03:55:41;99913.25;;;10.49;88.30
76321;BME280;65132;52.088;5.402;2022-12-29T03:58:08;99920.66;;;10.39;88.69
76321;BME280;65132;52.088;5.402;2022-12-29T04:00:34;99922.22;;;10.41;88.00
76321;BME280;65132;52.088;5.402;2022-12-29T04:03:00;99913.22;;;10.33;88.54
76321;BME280;65132;52.088;5.402;2022-12-29T04:05:27;99913.22;;;10.33;88.40
76321;BME280;65132;52.088;5.402;2022-12-29T04:07:54;99907.94;;;10.23;88.71
76321;BME280;65132;52.088;5.402;2022-12-29T04:10:20;99904.94;;;10.34;88.40
76321;BME280;65132;52.088;5.402;2022-12-29T04:12:46;99915.75;;;10.26;88.80
76321;BME280;65132;52.088;5.402;2022-12-29T04:15:13;99923.34;;;10.31;88.88
76321;BME280;65132;52.088;5.402;2022-12-29T04:17:39;99913.41;;;10.31;88.66
76321;BME280;65132;52.088;5.402;2022-12-29T04:20:06;99911.38;;;10.33;88.33
76321;BME280;65132;52.088;5.402;2022-12-29T04:22:33;99922.56;;;10.54;86.35
76321;BME280;65132;52.088;5.402;2022-12-29T04:24:59;99931.88;;;10.52;86.47
76321;BME280;65132;52.088;5.402;2022-12-29T04:27:26;99940.66;;;10.54;86.46
76321;BME280;65132;52.088;5.402;2022-12-29T04:29:52;99951.84;;;10.59;85.77
76321;BME280;65132;52.088;5.402;2022-12-29T04:32:18;99938.31;;;10.59;85.22
76321;BME280;65132;52.088;5.402;2022-12-29T04:34:45;99946.09;;;10.70;84.26
76321;BME280;65132;52.088;5.402;2022-12-29T04:37:11;99957.25;;;10.67;83.19
76321;BME280;65132;52.088;5.402;2022-12-29T04:39:37;99947.13;;;10.69;82.65
76321;BME280;65132;52.088;5.402;2022-12-29T04:42:04;99953.03;;;10.72;82.80
76321;BME280;65132;52.088;5.402;2022-12-29T04:44:30;99956.06;;;10.69;82.97
76321;BME280;65132;52.088;5.402;2022-12-29T04:46:56;99965.72;;;10.64;83.02
76321;BME280;65132;52.088;5.402;2022-12-29T04:49:23;99966.53;;;10.56;83.11
76321;BME280;65132;52.088;5.402;2022-12-29T04:51:49;99974.31;;;10.59;83.28
76321;BME280;65132;52.088;5.402;2022-12-29T04:54:16;99963.16;;;10.62;82.43
76321;BME280;65132;52.088;5.402;2022-12-29T04:56:42;99973.97;;;10.62;82.19
76321;BME280;65132;52.088;5.402;2022-12-29T04:59:08;99980.75;;;10.58;82.23
76321;BME280;65132;52.088;5.402;2022-12-29T05:01:35;99965.31;;;10.51;82.30
76321;BME280;65132;52.088;5.402;2022-12-29T05:04:01;99960.59;;;10.53;81.64
76321;BME280;65132;52.088;5.402;2022-12-29T05:06:28;99984.59;;;10.48;81.99
76321;BME280;65132;52.088;5.402;2022-12-29T05:08:54;99975.63;;;10.47;82.32
76321;BME280;65132;52.088;5.402;2022-12-29T05:11:20;99993.88;;;10.45;82.21
76321;BME280;65132;52.088;5.402;2022-12-29T05:13:47;99984.78;;;10.46;82.21
76321;BME280;65132;52.088;5.402;2022-12-29T05:16:13;99979.69;;;10.43;82.04
76321;BME280;65132;52.088;5.402;2022-12-29T05:18:40;99980.84;;;10.41;82.17
76321;BME280;65132;52.088;5.402;2022-12-29T05:21:06;99982.00;;;10.30;82.35
76321;BME280;65132;52.088;5.402;2022-12-29T05:23:32;99994.69;;;10.30;82.45
76321;BME280;65132;52.088;5.402;2022-12-29T05:25:59;99981.13;;;10.22;83.04
76321;BME280;65132;52.088;5.402;2022-12-29T05:28:25;99984.22;;;10.35;82.12
76321;BME280;65132;52.088;5.402;2022-12-29T05:30:51;99995.34;;;10.24;82.36
76321;BME280;65132;52.088;5.402;2022-12-29T05:33:19;99994.69;;;10.30;81.69
76321;BME280;65132;52.088;5.402;2022-12-29T05:35:45;99998.56;;;10.35;81.31
76321;BME280;65132;52.088;5.402;2022-12-29T05:38:12;99991.13;;;10.21;82.53
76321;BME280;65132;52.088;5.402;2022-12-29T05:40:38;99995.84;;;10.27;82.11
76321;BME280;65132;52.088;5.402;2022-12-29T05:43:05;99997.22;;;10.31;80.99
76321;BME280;65132;52.088;5.402;2022-12-29T05:45:31;99990.97;;;10.31;81.56
76321;BME280;65132;52.088;5.402;2022-12-29T05:47:57;99977.78;;;10.28;81.97
76321;BME280;65132;52.088;5.402;2022-12-29T05:50:24;99979.28;;;10.22;82.30
76321;BME280;65132;52.088;5.402;2022-12-29T05:52:50;99984.22;;;10.35;81.31
76321;BME280;65132;52.088;5.402;2022-12-29T05:55:17;99973.94;;;10.46;79.52
76321;BME280;65132;52.088;5.402;2022-12-29T05:57:43;99998.28;;;10.38;79.96
76321;BME280;65132;52.088;5.402;2022-12-29T06:00:10;99999.16;;;10.47;79.52
76321;BME280;65132;52.088;5.402;2022-12-29T06:02:37;99999.16;;;10.47;79.36
76321;BME280;65132;52.088;5.402;2022-12-29T06:05:04;100008.78;;;10.49;78.53
76321;BME280;65132;52.088;5.402;2022-12-29T06:07:30;100015.03;;;10.42;79.37
76321;BME280;65132;52.088;5.402;2022-12-29T06:09:57;100026.84;;;10.41;78.90
76321;BME280;65132;52.088;5.402;2022-12-29T06:12:23;100030.09;;;10.52;78.47
76321;BME280;65132;52.088;5.402;2022-12-29T06:14:49;100032.28;;;10.49;78.44
76321;BME280;65132;52.088;5.402;2022-12-29T06:17:16;100025.69;;;10.51;77.90
76321;BME280;65132;52.088;5.402;2022-12-29T06:19:42;100032.66;;;10.62;76.54
76321;BME280;65132;52.088;5.402;2022-12-29T06:22:09;100030.31;;;10.59;77.48
76321;BME280;65132;52.088;5.402;2022-12-29T06:24:35;100029.44;;;10.50;77.13
76321;BME280;65132;52.088;5.402;2022-12-29T06:27:01;100017.88;;;10.40;78.75
76321;BME280;65132;52.088;5.402;2022-12-29T06:29:28;100017.84;;;10.32;78.27
76321;BME280;65132;52.088;5.402;2022-12-29T06:31:54;100016.63;;;10.27;79.30
76321;BME280;65132;52.088;5.402;2022-12-29T06:34:20;100025.44;;;10.29;79.09
76321;BME280;65132;52.088;5.402;2022-12-29T06:36:47;100042.78;;;10.18;80.34
76321;BME280;65132;52.088;5.402;2022-12-29T06:39:14;100055.16;;;10.21;80.03
76321;BME280;65132;52.088;5.402;2022-12-29T06:41:42;100061.69;;;10.10;80.86
76321;BME280;65132;52.088;5.402;2022-12-29T06:44:08;100054.59;;;10.09;81.32
76321;BME280;65132;52.088;5.402;2022-12-29T06:46:35;100067.38;;;10.07;81.18
76321;BME280;65132;52.088;5.402;2022-12-29T06:49:02;100055.28;;;10.11;81.25
76321;BME280;65132;52.088;5.402;2022-12-29T06:51:28;100043.81;;;10.17;79.45
76321;BME280;65132;52.088;5.402;2022-12-29T06:53:54;100031.31;;;10.16;79.61
76321;BME280;65132;52.088;5.402;2022-12-29T06:56:21;100040.41;;;10.15;79.17
76321;BME280;65132;52.088;5.402;2022-12-29T06:58:47;100040.44;;;10.23;78.77
76321;BME280;65132;52.088;5.402;2022-12-29T07:01:13;100049.56;;;10.22;77.45
76321;BME280;65132;52.088;5.402;2022-12-29T07:03:41;100049.31;;;10.08;78.23
76321;BME280;65132;52.088;5.402;2022-12-29T07:06:07;100061.31;;;9.88;79.82
76321;BME280;65132;52.088;5.402;2022-12-29T07:08:34;100088.63;;;9.77;81.26
76321;BME280;65132;52.088;5.402;2022-12-29T07:11:01;100073.41;;;9.50;83.64
76321;BME280;65132;52.088;5.402;2022-12-29T07:13:28;100078.09;;;9.30;85.69
76321;BME280;65132;52.088;5.402;2022-12-29T07:15:54;100062.22;;;9.10;87.83
76321;BME280;65132;52.088;5.402;2022-12-29T07:18:20;100062.44;;;8.81;89.51
76321;BME280;65132;52.088;5.402;2022-12-29T07:20:47;100060.81;;;8.88;89.79
76321;BME280;65132;52.088;5.402;2022-12-29T07:23:13;100060.13;;;8.86;90.26
76321;BME280;65132;52.088;5.402;2022-12-29T07:25:40;100075.47;;;8.86;89.68
76321;BME280;65132;52.088;5.402;2022-12-29T07:28:06;100084.22;;;8.70;90.89
76321;BME280;65132;52.088;5.402;2022-12-29T07:30:33;100084.69;;;8.66;91.01
76321;BME280;65132;52.088;5.402;2022-12-29T07:32:59;100075.53;;;8.76;90.32
76321;BME280;65132;52.088;5.402;2022-12-29T07:35:25;100088.00;;;8.60;91.59
76321;BME280;65132;52.088;5.402;2022-12-29T07:37:52;100084.69;;;8.66;91.36
76321;BME280;65132;52.088;5.402;2022-12-29T07:40:18;100086.09;;;8.70;90.68
76321;BME280;65132;52.088;5.402;2022-12-29T07:42:45;100096.88;;;8.70;90.67
76321;BME280;65132;52.088;5.402;2022-12-29T07:45:11;100083.06;;;8.73;90.94
76321;BME280;65132;52.088;5.402;2022-12-29T07:47:37;100084.31;;;8.78;89.93
76321;BME280;65132;52.088;5.402;2022-12-29T07:50:04;100090.84;;;8.76;89.66
76321;BME280;65132;52.088;5.402;2022-12-29T07:52:31;100096.22;;;8.85;89.54
76321;BME280;65132;52.088;5.402;2022-12-29T07:54:57;100099.00;;;8.93;89.09
76321;BME280;65132;52.088;5.402;2022-12-29T07:57:24;100090.06;;;9.10;87.22
76321;BME280;65132;52.088;5.402;2022-12-29T07:59:57;100106.97;;;9.12;88.44
76321;BME280;65132;52.088;5.402;2022-12-29T08:02:23;100098.22;;;9.18;87.29
76321;BME280;65132;52.088;5.402;2022-12-29T08:04:50;100096.94;;;9.22;87.36
76321;BME280;65132;52.088;5.402;2022-12-29T08:07:16;100089.59;;;9.32;85.85
76321;BME280;65132;52.088;5.402;2022-12-29T08:09:43;100097.94;;;9.39;85.65
76321;BME280;65132;52.088;5.402;2022-12-29T08:12:12;100082.25;;;9.42;85.73
76321;BME280;65132;52.088;5.402;2022-12-29T08:14:39;100083.50;;;9.48;84.78
76321;BME280;65132;52.088;5.402;2022-12-29T08:17:05;100079.63;;;9.50;84.26
76321;BME280;65132;52.088;5.402;2022-12-29T08:19:31;100077.63;;;9.52;84.13
76321;BME280;65132;52.088;5.402;2022-12-29T08:21:58;100064.34;;;9.59;82.95
76321;BME280;65132;52.088;5.402;2022-12-29T08:24:24;100072.09;;;9.80;81.24
76321;BME280;65132;52.088;5.402;2022-12-29T08:26:51;100067.34;;;9.74;81.01
76321;BME280;65132;52.088;5.402;2022-12-29T08:29:18;100080.69;;;9.75;81.26
76321;BME280;65132;52.088;5.402;2022-12-29T08:31:44;100080.19;;;9.80;80.29
76321;BME280;65132;52.088;5.402;2022-12-29T08:34:11;100083.59;;;9.82;80.52
76321;BME280;65132;52.088;5.402;2022-12-29T08:36:38;100077.25;;;9.91;79.34
76321;BME280;65132;52.088;5.402;2022-12-29T08:39:04;100074.53;;;9.91;79.61
76321;BME280;65132;52.088;5.402;2022-12-29T08:41:31;100085.13;;;9.84;79.40
76321;BME280;65132;52.088;5.402;2022-12-29T08:43:57;100073.84;;;9.89;78.99
76321;BME280;65132;52.088;5.402;2022-12-29T08:46:24;100091.91;;;9.88;79.21
76321;BME280;65132;52.088;5.402;2022-12-29T08:48:50;100086.25;;;9.99;78.03
76321;BME280;65132;52.088;5.402;2022-12-29T08:51:17;100098.50;;;9.86;80.28
76321;BME280;65132;52.088;5.402;2022-12-29T08:53:50;100082.41;;;9.84;80.23
76321;BME280;65132;52.088;5.402;2022-12-29T08:56:16;100120.81;;;9.70;81.96
76321;BME280;65132;52.088;5.402;2022-12-29T08:58:42;100103.59;;;9.71;81.55
76321;BME280;65132;52.088;5.402;2022-12-29T09:01:09;100102.53;;;9.64;83.07
76321;BME280;65132;52.088;5.402;2022-12-29T09:03:36;100103.22;;;9.66;82.62
76321;BME280;65132;52.088;5.402;2022-12-29T09:06:22;100098.03;;;9.73;82.43
76321;BME280;65132;52.088;5.402;2022-12-29T09:08:48;100116.78;;;9.74;82.72
76321;BME280;65132;52.088;5.402;2022-12-29T09:11:21;100113.34;;;9.64;83.89
76321;BME280;65132;52.088;5.402;2022-12-29T09:13:48;100118.28;;;9.68;82.95
76321;BME280;65132;52.088;5.402;2022-12-29T09:16:16;100119.38;;;9.58;84.17
76321;BME280;65132;52.088;5.402;2022-12-29T09:18:43;100123.97;;;9.65;83.96
76321;BME280;65132;52.088;5.402;2022-12-29T09:21:11;100116.34;;;9.61;84.73
76321;BME280;65132;52.088;5.402;2022-12-29T09:23:38;100126.22;;;9.70;83.80
76321;BME280;65132;52.088;5.402;2022-12-29T09:26:05;100125.22;;;9.71;83.65
76321;BME280;65132;52.088;5.402;2022-12-29T09:28:31;100127.06;;;9.70;83.54
76321;BME280;65132;52.088;5.402;2022-12-29T09:30:58;100132.72;;;9.77;83.29
76321;BME280;65132;52.088;5.402;2022-12-29T09:33:25;100139.63;;;9.80;83.69
76321;BME280;65132;52.088;5.402;2022-12-29T09:35:57;100149.22;;;9.74;84.39
76321;BME280;65132;52.088;5.402;2022-12-29T09:38:24;100151.00;;;9.65;85.50
76321;BME280;65132;52.088;5.402;2022-12-29T09:40:54;100157.78;;;9.52;87.27
76321;BME280;65132;52.088;5.402;2022-12-29T09:46:28;100187.44;;;9.44;87.97
76321;BME280;65132;52.088;5.402;2022-12-29T09:49:30;100177.16;;;9.30;89.53
76321;BME280;65132;52.088;5.402;2022-12-29T09:51:55;100183.00;;;9.25;89.29
76321;BME280;65132;52.088;5.402;2022-12-29T09:54:48;100181.56;;;9.31;89.71
76321;BME280;65132;52.088;5.402;2022-12-29T09:57:52;100184.81;;;9.34;89.43
76321;BME280;65132;52.088;5.402;2022-12-29T10:00:22;100204.63;;;9.25;89.82
76321;BME280;65132;52.088;5.402;2022-12-29T10:02:54;100197.06;;;9.29;89.52
76321;BME280;65132;52.088;5.402;2022-12-29T10:10:57;100194.44;;;9.37;89.48
76321;BME280;65132;52.088;5.402;2022-12-29T10:13:51;100206.97;;;9.38;88.79
76321;BME280;65132;52.088;5.402;2022-12-29T10:24:26;100222.97;;;9.22;91.67
76321;BME280;65132;52.088;5.402;2022-12-29T10:26:56;100229.22;;;9.22;91.40
76321;BME280;65132;52.088;5.402;2022-12-29T10:29:37;100237.75;;;9.18;91.83
76321;BME280;65132;52.088;5.402;2022-12-29T10:32:13;100243.41;;;9.24;91.07
76321;BME280;65132;52.088;5.402;2022-12-29T10:34:50;100254.34;;;9.23;91.96
76321;BME280;65132;52.088;5.402;2022-12-29T10:39:49;100260.59;;;9.23;91.51
76321;BME280;65132;52.088;5.402;2022-12-29T10:42:39;100264.06;;;9.16;92.11
76321;BME280;65132;52.088;5.402;2022-12-29T10:45:14;100253.53;;;9.13;93.19
76321;BME280;65132;52.088;5.402;2022-12-29T10:47:52;100268.16;;;9.20;92.41
76321;BME280;65132;52.088;5.402;2022-12-29T10:50:19;100259.66;;;9.15;92.53
76321;BME280;65132;52.088;5.402;2022-12-29T10:52:47;100265.69;;;9.26;92.14
76321;BME280;65132;52.088;5.402;2022-12-29T10:55:24;100282.03;;;9.25;92.32
76321;BME280;65132;52.088;5.402;2022-12-29T10:57:52;100275.38;;;9.19;92.80
76321;BME280;65132;52.088;5.402;2022-12-29T11:00:21;100292.41;;;9.29;91.60
76321;BME280;65132;52.088;5.402;2022-12-29T11:05:57;100297.34;;;9.34;91.98
76321;BME280;65132;52.088;5.402;2022-12-29T11:08:33;100304.16;;;9.38;91.26
76321;BME280;65132;52.088;5.402;2022-12-29T11:11:03;100311.91;;;9.50;91.48
76321;BME280;65132;52.088;5.402;2022-12-29T11:13:33;100324.13;;;9.54;91.04
76321;BME280;65132;52.088;5.402;2022-12-29T11:16:04;100324.50;;;9.59;90.22
76321;BME280;65132;52.088;5.402;2022-12-29T11:18:36;100330.06;;;9.58;90.24
76321;BME280;65132;52.088;5.402;2022-12-29T11:21:05;100344.69;;;9.65;90.49
76321;BME280;65132;52.088;5.402;2022-12-29T11:23:40;100349.47;;;9.71;89.78
76321;BME280;65132;52.088;5.402;2022-12-29T11:28:37;100328.75;;;10.07;88.46
76321;BME280;65132;52.088;5.402;2022-12-29T11:31:05;100341.41;;;10.06;88.36
76321;BME280;65132;52.088;5.402;2022-12-29T11:33:34;100338.63;;;9.98;88.34
76321;BME280;65132;52.088;5.402;2022-12-29T11:36:05;100346.25;;;9.85;89.04
76321;BME280;65132;52.088;5.402;2022-12-29T11:38:38;100347.63;;;9.72;88.47
76321;BME280;65132;52.088;5.402;2022-12-29T11:41:05;100355.81;;;9.52;89.10
76321;BME280;65132;52.088;5.402;2022-12-29T11:43:41;100351.31;;;9.43;89.12
76321;BME280;65132;52.088;5.402;2022-12-29T11:46:28;100361.06;;;9.54;88.75
76321;BME280;65132;52.088;5.402;2022-12-29T11:48:56;100355.22;;;9.58;88.25
76321;BME280;65132;52.088;5.402;2022-12-29T11:51:30;100364.31;;;9.57;88.13
76321;BME280;65132;52.088;5.402;2022-12-29T11:54:01;100365.59;;;9.63;87.24
76321;BME280;65132;52.088;5.402;2022-12-29T11:56:35;100381.09;;;9.61;87.17
76321;BME280;65132;52.088;5.402;2022-12-29T12:01:54;100372.38;;;9.67;85.72
76321;BME280;65132;52.088;5.402;2022-12-29T12:04:34;100365.69;;;9.71;85.69
76321;BME280;65132;52.088;5.402;2022-12-29T12:09:37;100376.97;;;9.84;85.27
76321;BME280;65132;52.088;5.402;2022-12-29T12:12:08;100373.31;;;10.03;85.28
76321;BME280;65132;52.088;5.402;2022-12-29T12:14:53;100371.38;;;10.83;82.61
76321;BME280;65132;52.088;5.402;2022-12-29T12:17:32;100369.47;;;11.78;78.05
76321;BME280;65132;52.088;5.402;2022-12-29T12:20:16;100377.88;;;10.90;82.37
76321;BME280;65132;52.088;5.402;2022-12-29T12:25:37;100380.63;;;10.72;83.35
76321;BME280;65132;52.088;5.402;2022-12-29T12:28:37;100389.56;;;10.73;82.42
76321;BME280;65132;52.088;5.402;2022-12-29T12:31:21;100380.31;;;11.52;80.57
76321;BME280;65132;52.088;5.402;2022-12-29T12:33:58;100379.72;;;11.41;78.85
76321;BME280;65132;52.088;5.402;2022-12-29T12:42:58;100386.31;;;10.87;81.13
76321;BME280;65132;52.088;5.402;2022-12-29T12:51:37;100403.97;;;10.56;82.68
76321;BME280;65132;52.088;5.402;2022-12-29T13:00:13;100415.97;;;10.53;82.03
76321;BME280;65132;52.088;5.402;2022-12-29T13:05:57;100423.34;;;10.34;83.63
76321;BME280;65132;52.088;5.402;2022-12-29T13:11:24;100424.09;;;10.53;82.91
76321;BME280;65132;52.088;5.402;2022-12-29T13:17:16;100422.06;;;10.55;82.35
76321;BME280;65132;52.088;5.402;2022-12-29T13:19:53;100434.13;;;10.43;82.91
76321;BME280;65132;52.088;5.402;2022-12-29T13:25:22;100426.22;;;10.32;83.68
76321;BME280;65132;52.088;5.402;2022-12-29T13:28:13;100447.31;;;10.29;84.03
76321;BME280;65132;52.088;5.402;2022-12-29T13:31:04;100439.44;;;10.18;85.37
76321;BME280;65132;52.088;5.402;2022-12-29T13:36:17;100434.50;;;10.04;85.70
76321;BME280;65132;52.088;5.402;2022-12-29T13:38:48;100442.53;;;9.86;87.64
76321;BME280;65132;52.088;5.402;2022-12-29T13:43:57;100455.16;;;9.95;87.37
76321;BME280;65132;52.088;5.402;2022-12-29T13:46:31;100448.19;;;9.93;87.15
76321;BME280;65132;52.088;5.402;2022-12-29T13:49:03;100438.09;;;9.95;86.84
76321;BME280;65132;52.088;5.402;2022-12-29T13:51:32;100441.09;;;9.92;86.43
76321;BME280;65132;52.088;5.402;2022-12-29T13:54:14;100444.97;;;9.89;87.17
76321;BME280;65132;52.088;5.402;2022-12-29T13:59:51;100454.16;;;9.96;85.53
76321;BME280;65132;52.088;5.402;2022-12-29T14:04:59;100451.81;;;9.84;85.77
76321;BME280;65132;52.088;5.402;2022-12-29T14:07:27;100440.69;;;9.87;85.77
76321;BME280;65132;52.088;5.402;2022-12-29T14:09:55;100458.72;;;9.68;86.21
76321;BME280;65132;52.088;5.402;2022-12-29T14:12:30;100446.16;;;9.77;84.20
76321;BME280;65132;52.088;5.402;2022-12-29T14:15:19;100459.78;;;9.76;83.88
76321;BME280;65132;52.088;5.402;2022-12-29T14:18:02;100473.34;;;9.66;84.72
76321;BME280;65132;52.088;5.402;2022-12-29T14:20:29;100467.44;;;9.43;85.73
76321;BME280;65132;52.088;5.402;2022-12-29T14:28:47;100484.72;;;9.14;87.55
76321;BME280;65132;52.088;5.402;2022-12-29T14:33:41;100482.88;;;8.95;88.23
76321;BME280;65132;52.088;5.402;2022-12-29T14:36:41;100482.72;;;8.87;87.87
76321;BME280;65132;52.088;5.402;2022-12-29T14:39:34;100479.03;;;8.69;90.02
76321;BME280;65132;52.088;5.402;2022-12-29T14:42:12;100465.56;;;8.60;90.47
76321;BME280;65132;52.088;5.402;2022-12-29T14:50:03;100471.81;;;8.70;91.24
76321;BME280;65132;52.088;5.402;2022-12-29T14:52:31;100473.22;;;8.55;92.07
76321;BME280;65132;52.088;5.402;2022-12-29T14:55:53;100477.47;;;8.48;92.55
76321;BME280;65132;52.088;5.402;2022-12-29T14:58:00;100493.94;;;8.54;92.31
76321;BME280;65132;52.088;5.402;2022-12-29T15:00:34;100490.66;;;8.60;93.22
76321;BME280;65132;52.088;5.402;2022-12-29T15:03:14;100507.44;;;8.73;92.88
76321;BME280;65132;52.088;5.402;2022-12-29T15:05:50;100502.75;;;8.66;93.33
76321;BME280;65132;52.088;5.402;2022-12-29T15:08:21;100500.34;;;8.63;93.31
76321;BME280;65132;52.088;5.402;2022-12-29T15:10:53;100488.25;;;8.67;92.98
76321;BME280;65132;52.088;5.402;2022-12-29T15:13:24;100491.13;;;8.75;92.21